SVMI/CCS METAR and TAF weather

Enter ICAO airport designator
Station Type Date Time Source
SVMI METAR 2020/04/02 02:00 UTC NOAA

SVMI 020200Z 09003KT 9999 FEW016 BKN070 26/22 Q1012 NOSIG


Station Type Date Time Source
SVMI Decoded METAR 2020/04/02 02:00 UTC NOAA

Caracas / Maiquetia Aerop. Intl. Simon Bolivar, Venezuela (SVMI) 10-36N 066-59W 48M
Apr 01, 2020 - 10:00 PM EDT / 2020.04.02 0200 UTC
Wind: from the E (090 degrees) at 3 MPH (3 KT):0
Visibility: greater than 7 mile(s):0
Sky conditions: mostly cloudy
Temperature: 78 F (26 C)
Dew Point: 71 F (22 C)
Relative Humidity: 78%
Pressure (altimeter): 29.88 in. Hg (1012 hPa)
ob: SVMI 020200Z 09003KT 9999 FEW016 BKN070 26/22 Q1012 NOSIG
cycle: 2

Station Type Date Time Source
SVMI TAF 2020/04/01 18:25 UTC NOAA

TAF SVMI 011600Z 0118/0218 09003KT 9999 FEW016 TX28/19Z TN22/09Z
BECMG 0118/0122 07003KT 9999 SCT070

Example: see airport list